createdAt,value
2023-03-02T00:02:12.679Z,101219.90
2023-03-02T00:04:49.095Z,101225.86
2023-03-02T00:07:23.236Z,101227.13
2023-03-02T00:09:54.172Z,101226.27
2023-03-02T00:12:22.669Z,101229.17
2023-03-02T00:14:52.405Z,101231.91
2023-03-02T00:17:29.194Z,101231.72
2023-03-02T00:20:10.592Z,101231.77
2023-03-02T00:22:42.906Z,101232.59
2023-03-02T00:25:14.204Z,101232.91
2023-03-02T00:27:43.205Z,101231.23
2023-03-02T00:30:14.822Z,101230.42
2023-03-02T00:32:44.855Z,101229.81
2023-03-02T00:35:14.434Z,101226.14
2023-03-02T00:37:43.540Z,101224.88
2023-03-02T00:40:13.331Z,101219.31
2023-03-02T00:42:42.606Z,101218.85
2023-03-02T00:45:12.955Z,101211.14
2023-03-02T00:47:42.576Z,101211.84
2023-03-02T00:50:12.294Z,101206.20
2023-03-02T00:52:41.322Z,101202.69
2023-03-02T00:55:10.853Z,101202.27
2023-03-02T00:57:41.298Z,101199.48
2023-03-02T04:00:49.160Z,101130.29
2023-03-02T04:03:20.403Z,101128.05
2023-03-02T04:05:50.613Z,101124.52
2023-03-02T04:08:20.838Z,101126.46
2023-03-02T04:10:50.264Z,101124.86
2023-03-02T04:13:19.720Z,101129.70
2023-03-02T04:15:49.108Z,101123.79
2023-03-02T04:18:18.725Z,101125.70
2023-03-02T04:20:48.515Z,101128.15
2023-03-02T04:23:17.880Z,101122.38
2023-03-02T04:25:48.772Z,101119.85
2023-03-02T04:28:22.319Z,101121.94
2023-03-02T04:30:51.846Z,101123.68
2023-03-02T04:33:20.202Z,101126.08
2023-03-02T04:35:51.383Z,101119.61
2023-03-02T04:38:22.214Z,101119.06
2023-03-02T04:40:51.982Z,101116.34
2023-03-02T04:43:21.536Z,101118.51
2023-03-02T04:45:51.221Z,101120.85
2023-03-02T04:48:20.755Z,101121.86
2023-03-02T04:50:50.266Z,101118.17
2023-03-02T04:53:19.689Z,101122.49
2023-03-02T04:55:48.805Z,101121.05
2023-03-02T04:58:18.266Z,101127.02
2023-03-02T05:00:47.380Z,101132.95
2023-03-02T05:03:16.065Z,101135.05
2023-03-02T05:05:45.276Z,101133.56
2023-03-02T05:08:15.319Z,101138.17
2023-03-02T05:10:44.617Z,101139.19
2023-03-02T05:13:13.979Z,101144.29
2023-03-02T05:15:43.888Z,101144.15
2023-03-02T05:18:13.837Z,101139.95
2023-03-02T05:20:42.103Z,101138.58
2023-03-02T05:23:14.380Z,101138.65
2023-03-02T05:25:43.636Z,101143.00
2023-03-02T05:28:12.760Z,101145.64
2023-03-02T05:30:42.647Z,101149.69
2023-03-02T05:33:12.098Z,101147.70
2023-03-02T05:35:41.300Z,101149.54
2023-03-02T05:38:10.275Z,101155.86
2023-03-02T05:40:41.278Z,101151.15
2023-03-02T05:43:15.535Z,101156.89
2023-03-02T05:45:45.149Z,101159.14
2023-03-02T05:48:14.949Z,101160.13
2023-03-02T05:50:43.564Z,101156.77
2023-03-02T05:53:13.035Z,101155.61
2023-03-02T05:55:42.298Z,101158.84
2023-03-02T05:58:16.076Z,101158.62
2023-03-02T06:00:46.761Z,101163.50
2023-03-02T06:03:17.372Z,101157.55
2023-03-02T06:05:51.361Z,101155.38
2023-03-02T06:08:22.731Z,101147.73
2023-03-02T06:10:56.895Z,101149.38
2023-03-02T06:13:25.957Z,101144.52
2023-03-02T06:15:56.139Z,101139.54
2023-03-02T06:18:24.473Z,101139.20
2023-03-02T06:20:53.836Z,101139.14
2023-03-02T06:23:23.590Z,101142.53
2023-03-02T06:25:52.765Z,101139.62
2023-03-02T06:28:22.553Z,101141.58
2023-03-02T06:30:52.759Z,101144.46
2023-03-02T06:33:22.692Z,101147.48
2023-03-02T06:35:52.494Z,101146.11
2023-03-02T06:38:22.308Z,101144.34
2023-03-02T06:40:51.799Z,101142.49
2023-03-02T06:43:20.178Z,101144.59
2023-03-02T06:45:51.638Z,101138.55
2023-03-02T06:48:20.204Z,101142.89
2023-03-02T06:50:49.346Z,101144.26
2023-03-02T06:53:20.621Z,101151.98
2023-03-02T06:55:50.836Z,101150.95
2023-03-02T06:58:20.185Z,101154.70
2023-03-02T07:00:49.572Z,101152.09
2023-03-02T07:03:19.369Z,101160.50
2023-03-02T07:05:49.272Z,101154.94
2023-03-02T07:08:18.468Z,101155.79
2023-03-02T07:10:47.898Z,101156.13
2023-03-02T07:13:17.272Z,101158.13
2023-03-02T07:15:46.964Z,101160.15
2023-03-02T07:18:16.649Z,101158.66
2023-03-02T07:20:44.989Z,101157.58
2023-03-02T07:23:14.001Z,101154.14
2023-03-02T07:25:43.434Z,101146.08
2023-03-02T07:28:12.047Z,101148.09
2023-03-02T07:30:41.078Z,101143.09
2023-03-02T07:33:09.576Z,101141.74
2023-03-02T07:35:38.879Z,101140.66
2023-03-02T07:38:07.970Z,101140.23
2023-03-02T07:40:40.309Z,101142.21
2023-03-02T07:43:09.893Z,101142.42
2023-03-02T07:45:39.715Z,101146.54
2023-03-02T07:48:08.984Z,101150.70
2023-03-02T07:50:38.119Z,101142.90
2023-03-02T07:53:07.510Z,101146.51
2023-03-02T07:55:40.770Z,101146.35
2023-03-02T07:58:09.913Z,101152.76
2023-03-02T08:00:42.604Z,101149.62
2023-03-02T08:03:14.631Z,101149.23
2023-03-02T08:05:43.831Z,101155.14
2023-03-02T08:08:12.971Z,101155.46
2023-03-02T08:10:42.583Z,101151.15
2023-03-02T08:13:11.504Z,101154.17
2023-03-02T08:15:39.814Z,101149.05
2023-03-02T08:18:09.016Z,101152.85
2023-03-02T08:20:38.810Z,101152.33
2023-03-02T08:23:07.479Z,101149.36
2023-03-02T08:25:39.286Z,101148.38
2023-03-02T08:28:08.449Z,101146.21
2023-03-02T08:30:38.117Z,101142.13
2023-03-02T08:33:07.282Z,101138.94
2023-03-02T08:35:36.781Z,101142.11
2023-03-02T08:38:05.973Z,101142.15
2023-03-02T08:40:35.518Z,101141.49
2023-03-02T08:43:06.711Z,101139.38
2023-03-02T08:45:37.754Z,101143.54
2023-03-02T08:48:07.049Z,101141.69
2023-03-02T08:50:36.398Z,101137.02
2023-03-02T08:53:05.643Z,101141.77
2023-03-02T08:55:38.202Z,101136.02
2023-03-02T08:58:07.029Z,101133.45
2023-03-02T09:00:36.414Z,101136.90
2023-03-02T09:03:05.646Z,101125.63
2023-03-02T09:05:38.059Z,101125.84
2023-03-02T09:08:07.846Z,101119.48
2023-03-02T09:10:37.411Z,101121.87
2023-03-02T09:13:08.623Z,101121.51
2023-03-02T09:15:38.223Z,101119.83
2023-03-02T09:18:07.457Z,101121.95
2023-03-02T09:20:36.715Z,101124.75
2023-03-02T09:23:05.881Z,101128.22
2023-03-02T09:25:34.997Z,101130.04
2023-03-02T09:28:04.433Z,101123.30
2023-03-02T09:30:33.661Z,101124.17
2023-03-02T09:33:02.815Z,101125.11
2023-03-02T09:35:31.902Z,101115.87
2023-03-02T09:38:01.415Z,101117.41
2023-03-02T09:40:32.755Z,101117.35
2023-03-02T09:43:13.319Z,101117.30
2023-03-02T09:46:10.944Z,101116.83
2023-03-02T09:48:58.869Z,101112.66
2023-03-02T09:51:59.241Z,101111.20
2023-03-02T09:54:31.463Z,101111.27
2023-03-02T09:57:02.510Z,101111.31
2023-03-02T09:59:44.203Z,101107.08
2023-03-02T10:02:19.583Z,101113.38
2023-03-02T10:04:53.473Z,101104.35
2023-03-02T10:07:29.735Z,101103.66
2023-03-02T10:10:23.290Z,101102.30
2023-03-02T10:13:00.240Z,101096.78
2023-03-02T10:15:53.898Z,101093.11
2023-03-02T10:18:34.264Z,101093.12
2023-03-02T10:21:23.129Z,101093.32
2023-03-02T10:24:37.779Z,101089.20
2023-03-02T10:27:27.813Z,101088.35
2023-03-02T10:30:03.658Z,101087.69
2023-03-02T10:32:53.251Z,101089.86
2023-03-02T10:35:25.880Z,101088.86
2023-03-02T10:38:00.722Z,101086.94
2023-03-02T10:40:44.510Z,101083.33
2023-03-02T10:43:34.473Z,101081.18
2023-03-02T10:46:08.944Z,101077.41
2023-03-02T10:48:50.602Z,101080.05
2023-03-02T10:51:29.306Z,101077.31
2023-03-02T10:54:07.311Z,101071.67
2023-03-02T10:56:36.405Z,101068.98
2023-03-02T10:59:30.760Z,101065.16
2023-03-02T11:01:59.510Z,101062.59
2023-03-02T11:04:29.157Z,101062.04
2023-03-02T11:07:09.419Z,101057.11
2023-03-02T11:09:38.782Z,101052.92
2023-03-02T11:12:15.801Z,101052.41
2023-03-02T11:14:44.238Z,101046.73
2023-03-02T11:17:40.520Z,101046.14
2023-03-02T11:20:22.536Z,101046.79
2023-03-02T11:23:00.118Z,101044.52
2023-03-02T11:25:35.343Z,101037.88
2023-03-02T11:28:28.054Z,101035.95
2023-03-02T11:30:59.914Z,101027.46
2023-03-02T11:33:44.007Z,101024.65
2023-03-02T11:36:24.027Z,101022.92
2023-03-02T11:38:56.133Z,101020.73
2023-03-02T11:41:34.343Z,101021.05
2023-03-02T11:44:17.298Z,101018.95
2023-03-02T11:46:50.489Z,101015.50
2023-03-02T11:49:28.198Z,101014.67
2023-03-02T11:52:00.870Z,101011.84
2023-03-02T11:54:44.904Z,101014.59
2023-03-02T11:57:38.596Z,101014.73
2023-03-02T12:00:39.300Z,101008.26
2023-03-02T12:03:19.192Z,101007.84
2023-03-02T12:06:02.470Z,101003.61
2023-03-02T12:08:41.309Z,101001.81
2023-03-02T12:11:19.153Z,100992.92
2023-03-02T12:13:54.139Z,100991.59
2023-03-02T12:16:36.230Z,100988.37
2023-03-02T12:19:29.113Z,100986.05
2023-03-02T12:22:02.435Z,100986.80
2023-03-02T12:24:34.828Z,100990.05
2023-03-02T12:27:15.561Z,100986.80
2023-03-02T12:29:46.756Z,100983.69
2023-03-02T12:32:30.381Z,100976.23
2023-03-02T12:35:08.330Z,100975.21
2023-03-02T12:37:57.493Z,100975.77
2023-03-02T12:41:01.071Z,100975.98
2023-03-02T12:43:33.108Z,100977.14
2023-03-02T12:46:28.556Z,100972.21
2023-03-02T12:48:59.460Z,100967.10
2023-03-02T12:51:33.161Z,100965.05
2023-03-02T12:54:27.372Z,100959.72
2023-03-02T12:57:14.949Z,100957.38
2023-03-02T12:59:51.623Z,100954.59
2023-03-02T13:02:24.158Z,100950.07
2023-03-02T13:04:56.566Z,100949.19
2023-03-02T13:07:36.620Z,100949.05
2023-03-02T13:10:27.068Z,100948.36
2023-03-02T13:12:57.894Z,100945.98
2023-03-02T13:15:29.311Z,100941.69
2023-03-02T13:18:01.694Z,100938.52
2023-03-02T13:20:34.352Z,100936.15
2023-03-02T13:23:04.649Z,100929.48
2023-03-02T13:25:34.201Z,100930.69
2023-03-02T13:28:08.447Z,100925.27
2023-03-02T13:30:46.179Z,100919.34
2023-03-02T13:33:26.475Z,100919.83
2023-03-02T13:35:56.670Z,100916.16
2023-03-02T13:38:30.938Z,100917.10
2023-03-02T13:41:02.541Z,100915.13
2023-03-02T13:43:40.332Z,100909.55
2023-03-02T13:46:11.939Z,100911.79
2023-03-02T13:48:40.855Z,100910.11
2023-03-02T13:51:18.520Z,100907.23
2023-03-02T13:54:15.285Z,100899.26
2023-03-02T13:56:45.377Z,100897.13
2023-03-02T13:59:16.783Z,100891.83
2023-03-02T14:01:46.335Z,100889.00
2023-03-02T14:04:18.316Z,100883.89
2023-03-02T14:06:48.025Z,100882.46
2023-03-02T14:09:17.758Z,100883.02
2023-03-02T14:11:50.996Z,100879.08
2023-03-02T14:14:25.555Z,100876.85
2023-03-02T14:16:54.364Z,100872.02
2023-03-02T14:19:23.201Z,100867.28
2023-03-02T14:21:51.728Z,100865.65
2023-03-02T14:24:21.058Z,100861.52
2023-03-02T14:26:51.044Z,100860.45
2023-03-02T14:29:26.757Z,100852.66
2023-03-02T14:31:58.281Z,100852.13
2023-03-02T14:34:27.126Z,100847.39
2023-03-02T14:37:00.205Z,100843.80
2023-03-02T14:39:35.800Z,100842.69
2023-03-02T14:42:06.597Z,100838.64
2023-03-02T14:44:35.445Z,100836.90
2023-03-02T14:47:04.560Z,100832.21
2023-03-02T14:49:34.349Z,100836.05
2023-03-02T14:52:03.980Z,100830.52
2023-03-02T14:54:50.006Z,100833.17
2023-03-02T14:57:27.163Z,100833.96
2023-03-02T15:00:00.408Z,100829.38
2023-03-02T15:02:29.981Z,100829.02
2023-03-02T15:04:59.754Z,100828.73
2023-03-02T15:07:29.310Z,100825.05
2023-03-02T15:10:00.001Z,100820.82
2023-03-02T15:12:29.370Z,100822.17
2023-03-02T15:14:58.821Z,100823.03
2023-03-02T15:17:28.080Z,100821.38
2023-03-02T15:19:57.309Z,100820.73
2023-03-02T15:22:26.632Z,100819.89
2023-03-02T15:24:56.499Z,100816.77
2023-03-02T15:27:25.613Z,100818.25
2023-03-02T15:29:56.414Z,100814.71
2023-03-02T15:32:26.856Z,100813.44
2023-03-02T15:34:56.320Z,100812.30
2023-03-02T15:37:25.442Z,100814.18
2023-03-02T15:39:56.246Z,100814.38
2023-03-02T15:42:25.429Z,100811.11
2023-03-02T15:44:54.855Z,100810.20
2023-03-02T15:47:23.941Z,100805.10
2023-03-02T15:49:52.843Z,100808.35
2023-03-02T15:52:22.132Z,100809.38
2023-03-02T15:54:52.034Z,100807.02
2023-03-02T15:57:20.734Z,100804.41
2023-03-02T15:59:50.142Z,100800.55
2023-03-02T16:02:19.406Z,100797.87
2023-03-02T16:04:48.393Z,100795.49
2023-03-02T16:07:17.073Z,100793.98
2023-03-02T16:09:47.072Z,100793.74
2023-03-02T16:12:15.862Z,100790.18
2023-03-02T16:14:45.071Z,100784.21
2023-03-02T16:17:14.324Z,100782.63
2023-03-02T16:19:42.905Z,100782.33
2023-03-02T16:22:11.407Z,100777.67
2023-03-02T16:24:41.891Z,100781.41
2023-03-02T16:27:10.671Z,100779.14
2023-03-02T16:29:39.218Z,100777.86
2023-03-02T16:32:09.256Z,100776.83
2023-03-02T16:34:38.030Z,100774.70
2023-03-02T16:37:06.546Z,100776.38
2023-03-02T16:39:35.044Z,100780.46
2023-03-02T16:42:04.597Z,100778.30
2023-03-02T16:44:33.150Z,100778.98
2023-03-02T16:47:01.533Z,100780.53
2023-03-02T16:49:30.497Z,100778.73
2023-03-02T16:51:59.852Z,100776.67
2023-03-02T16:54:28.357Z,100780.09
2023-03-02T16:56:56.738Z,100780.60
2023-03-02T16:59:25.277Z,100782.23
2023-03-02T17:01:54.981Z,100784.73
2023-03-02T17:04:25.927Z,100784.50
2023-03-02T17:07:02.408Z,100782.23
2023-03-02T17:09:31.913Z,100783.98
2023-03-02T17:12:00.361Z,100777.49
2023-03-02T17:14:28.751Z,100777.14
2023-03-02T17:16:57.076Z,100778.06
2023-03-02T17:19:29.984Z,100785.73
2023-03-02T17:22:00.323Z,100786.58
2023-03-02T17:24:30.045Z,100793.94
2023-03-02T17:26:58.566Z,100797.05
2023-03-02T17:29:27.392Z,100793.55
2023-03-02T17:31:55.906Z,100794.89
2023-03-02T17:34:28.776Z,100798.53
2023-03-02T17:37:01.538Z,100794.36
2023-03-02T17:39:30.500Z,100799.94
2023-03-02T17:41:59.046Z,100796.45
2023-03-02T17:44:27.916Z,100796.86
2023-03-02T17:46:56.578Z,100799.05
2023-03-02T17:49:25.504Z,100796.72
2023-03-02T17:51:54.040Z,100799.95
2023-03-02T17:54:22.730Z,100800.41
2023-03-02T17:56:51.209Z,100794.73
2023-03-02T17:59:19.880Z,100790.47
2023-03-02T18:01:48.876Z,100792.71
2023-03-02T18:04:18.269Z,100788.46
2023-03-02T18:06:46.913Z,100788.63
2023-03-02T18:09:15.705Z,100784.98
2023-03-02T18:11:44.278Z,100786.86
2023-03-02T18:14:19.166Z,100781.66
2023-03-02T18:16:48.553Z,100779.98
2023-03-02T18:19:17.077Z,100779.38
2023-03-02T18:21:45.548Z,100781.39
2023-03-02T18:24:14.683Z,100778.38
2023-03-02T18:26:43.832Z,100781.08
2023-03-02T18:29:12.877Z,100780.38
2023-03-02T18:31:42.034Z,100781.77
2023-03-02T18:34:11.292Z,100779.25
2023-03-02T18:36:40.783Z,100779.14
2023-03-02T18:39:10.110Z,100774.98
2023-03-02T18:41:38.533Z,100772.45
2023-03-02T18:44:07.218Z,100776.27
2023-03-02T18:46:42.413Z,100777.24
2023-03-02T18:49:11.580Z,100778.62
2023-03-02T18:51:41.100Z,100776.73
2023-03-02T18:54:10.607Z,100778.35
2023-03-02T18:56:41.218Z,100783.54
2023-03-02T18:59:11.356Z,100783.52
2023-03-02T19:01:45.249Z,100787.59
2023-03-02T19:04:15.180Z,100786.26
2023-03-02T19:06:43.578Z,100784.41
2023-03-02T19:09:11.820Z,100783.56
2023-03-02T19:11:40.831Z,100785.75
2023-03-02T19:14:09.186Z,100783.10
2023-03-02T19:16:37.698Z,100784.86
2023-03-02T19:19:06.165Z,100783.84
2023-03-02T19:21:34.721Z,100787.40
2023-03-02T19:24:03.249Z,100784.25
2023-03-02T19:26:31.844Z,100780.58
2023-03-02T19:29:01.103Z,100780.08
2023-03-02T19:31:31.623Z,100780.82
2023-03-02T19:34:00.706Z,100781.55
2023-03-02T19:36:29.192Z,100780.92
2023-03-02T19:39:01.301Z,100788.25
2023-03-02T19:41:30.102Z,100785.29
2023-03-02T19:43:58.954Z,100786.00
2023-03-02T19:46:27.510Z,100782.94
2023-03-02T19:48:56.017Z,100784.17
2023-03-02T19:51:24.507Z,100780.66
2023-03-02T19:53:53.272Z,100776.21
2023-03-02T19:56:21.965Z,100774.77
2023-03-02T19:58:54.430Z,100775.86
2023-03-02T20:01:25.288Z,100779.30
2023-03-02T20:03:56.678Z,100784.23
2023-03-02T20:06:30.749Z,100782.83
2023-03-02T20:09:02.744Z,100775.27
2023-03-02T20:11:31.817Z,100773.03
2023-03-02T20:14:03.880Z,100773.30
2023-03-02T20:16:36.384Z,100776.29
2023-03-02T20:19:06.387Z,100776.35
2023-03-02T20:21:37.989Z,100773.37
2023-03-02T20:24:07.649Z,100771.27
2023-03-02T20:26:37.510Z,100768.61
2023-03-02T20:29:06.616Z,100763.77
2023-03-02T20:31:37.523Z,100761.46
2023-03-02T20:34:09.526Z,100758.92
2023-03-02T20:36:39.245Z,100761.83
2023-03-02T20:39:34.287Z,100759.63
2023-03-02T20:42:04.805Z,100757.94
2023-03-02T20:44:34.596Z,100755.98
2023-03-02T20:47:11.098Z,100752.61
2023-03-02T20:49:39.752Z,100749.77
2023-03-02T20:52:09.573Z,100750.95
2023-03-02T20:54:42.294Z,100746.64
2023-03-02T20:57:17.260Z,100741.90
2023-03-02T20:59:46.603Z,100740.37
2023-03-02T21:02:18.185Z,100738.24
2023-03-02T21:04:48.142Z,100737.58
2023-03-02T21:07:17.845Z,100734.27
2023-03-02T21:09:46.369Z,100729.86
2023-03-02T21:12:15.923Z,100730.52
2023-03-02T21:14:45.808Z,100732.72
2023-03-02T21:17:15.104Z,100731.15
2023-03-02T21:19:44.856Z,100729.52
2023-03-02T21:22:13.959Z,100722.25
2023-03-02T21:24:43.048Z,100721.81
2023-03-02T21:27:12.800Z,100724.46
2023-03-02T21:29:41.450Z,100723.89
2023-03-02T21:32:10.856Z,100720.86
2023-03-02T21:34:40.381Z,100720.85
2023-03-02T21:37:08.960Z,100717.13
2023-03-02T21:39:37.802Z,100716.20
2023-03-02T21:42:07.657Z,100716.83
2023-03-02T21:44:36.389Z,100716.61
2023-03-02T21:47:05.108Z,100717.34
2023-03-02T21:49:34.301Z,100717.82
2023-03-02T21:52:04.344Z,100717.48
2023-03-02T21:54:33.002Z,100721.98
2023-03-02T21:57:01.607Z,100717.25
2023-03-02T21:59:31.599Z,100715.94
2023-03-02T22:02:01.419Z,100712.36
2023-03-02T22:04:30.592Z,100711.59
2023-03-02T22:06:59.143Z,100710.98
2023-03-02T22:09:28.606Z,100710.09
2023-03-02T22:11:58.258Z,100707.74
2023-03-02T22:14:28.098Z,100707.80
2023-03-02T22:16:58.959Z,100704.00
2023-03-02T22:19:30.347Z,100700.65
2023-03-02T22:22:01.217Z,100696.86
2023-03-02T22:24:32.655Z,100694.43
2023-03-02T22:27:20.624Z,100692.76
2023-03-02T22:29:51.119Z,100693.56
2023-03-02T22:32:20.090Z,100694.63
2023-03-02T22:34:52.463Z,100692.22
2023-03-02T22:37:24.571Z,100695.77
2023-03-02T22:40:01.275Z,100698.23
2023-03-02T22:42:31.167Z,100694.13
2023-03-02T22:45:23.066Z,100689.33
2023-03-02T22:47:54.846Z,100691.61
2023-03-02T22:50:31.182Z,100688.37
2023-03-02T22:53:24.020Z,100689.70
2023-03-02T22:55:59.890Z,100684.98
2023-03-02T22:58:37.783Z,100682.55
2023-03-02T23:01:17.411Z,100678.81
2023-03-02T23:03:49.320Z,100675.89
2023-03-02T23:06:33.429Z,100666.69
2023-03-02T23:09:07.328Z,100667.23
2023-03-02T23:11:42.245Z,100668.09
2023-03-02T23:14:19.920Z,100665.51
2023-03-02T23:16:53.698Z,100670.29
2023-03-02T23:19:23.331Z,100672.22
2023-03-02T23:21:52.843Z,100669.33
2023-03-02T23:24:22.517Z,100664.46
2023-03-02T23:26:53.583Z,100661.02
2023-03-02T23:29:23.866Z,100657.10
2023-03-02T23:31:53.917Z,100652.75
2023-03-02T23:34:24.582Z,100657.56
2023-03-02T23:36:54.596Z,100660.77
2023-03-02T23:39:23.954Z,100653.98
2023-03-02T23:41:53.446Z,100645.30
2023-03-02T23:44:23.767Z,100643.67
2023-03-02T23:46:53.619Z,100643.94
2023-03-02T23:49:23.286Z,100641.30
2023-03-02T23:51:52.680Z,100641.14
2023-03-02T23:54:21.817Z,100640.55
2023-03-02T23:56:51.583Z,100637.05
2023-03-02T23:59:20.908Z,100629.83
